Time;durP1;ratioP1;P1;durP2;ratioP2;P2;SDS_P1;SDS_P2;PMS_P1;PMS_P2;Temp;Humidity;BMP_temperature;BMP_pressure;BME280_temperature;BME280_humidity;BME280_pressure;Samples;Min_cycle;Max_cycle;Signal;HPM_P1;HPM_P2
2022/07/23 00:03:33;;;;;;;6.38;4.45;;;;;;;17.44;98.38;99910.75;31093725;28;20050;-68
2022/07/23 00:18:35;;;;;;;5.85;4.80;;;;;;;17.30;99.34;99909.47;31090454;28;20050;-68
2022/07/23 00:33:37;;;;;;;5.20;3.35;;;;;;;17.12;100.00;99912.34;31086023;28;20049;-68
2022/07/23 00:48:39;;;;;;;4.63;4.10;;;;;;;16.93;100.00;99916.44;31107492;28;20054;-68
2022/07/23 01:03:41;;;;;;;5.35;4.32;;;;;;;16.83;100.00;99914.97;31107905;28;20050;-68
2022/07/23 01:18:44;;;;;;;8.30;5.47;;;;;;;16.72;100.00;99909.25;31126827;28;20057;-67
2022/07/23 01:33:45;;;;;;;8.90;6.38;;;;;;;16.74;100.00;99920.50;31121562;28;20042;-68
2022/07/23 01:48:48;;;;;;;7.00;5.50;;;;;;;16.74;100.00;99934.22;31121692;28;20121;-68
2022/07/23 02:03:50;;;;;;;6.85;4.57;;;;;;;16.78;100.00;99952.00;31105714;28;20058;-67
2022/07/23 02:18:52;;;;;;;5.97;4.72;;;;;;;16.73;100.00;99968.31;31121622;28;20058;-67
2022/07/23 02:33:55;;;;;;;9.75;4.95;;;;;;;16.68;100.00;99981.44;31100070;28;20064;-68
2022/07/23 02:48:57;;;;;;;8.35;5.93;;;;;;;16.91;100.00;99990.94;31112794;28;20409;-67
2022/07/23 03:04:00;;;;;;;9.30;6.35;;;;;;;17.16;100.00;99995.22;31112453;28;20041;-68
2022/07/23 03:19:02;;;;;;;8.57;5.88;;;;;;;17.34;100.00;99997.84;31104692;28;20096;-69
2022/07/23 03:34:07;;;;;;;8.02;6.15;;;;;;;17.56;100.00;100002.28;31103174;28;20054;-68
2022/07/23 03:49:09;;;;;;;7.18;5.50;;;;;;;17.98;98.13;99991.91;31097668;28;20054;-70
2022/07/23 04:04:11;;;;;;;7.22;5.72;;;;;;;18.28;97.01;99986.44;31083685;28;20133;-68
2022/07/23 04:19:13;;;;;;;9.25;6.75;;;;;;;18.68;95.36;99997.63;31099643;28;20080;-67
2022/07/23 04:34:15;;;;;;;7.50;6.35;;;;;;;19.16;92.58;99991.81;31109971;28;20045;-68
2022/07/23 04:49:17;;;;;;;7.85;6.40;;;;;;;19.59;90.58;100000.41;31121224;28;20063;-67
2022/07/23 05:04:19;;;;;;;8.98;7.05;;;;;;;19.90;89.25;99997.75;31117908;28;20474;-68
2022/07/23 05:19:22;;;;;;;12.02;6.40;;;;;;;20.61;86.19;100015.47;31116006;28;20580;-68
2022/07/23 05:34:26;;;;;;;8.40;6.38;;;;;;;20.92;83.37;100025.00;31113337;28;20050;-69
2022/07/23 05:49:28;;;;;;;5.78;4.80;;;;;;;21.65;79.45;100009.59;31111584;28;20052;-70
2022/07/23 06:04:31;;;;;;;7.10;4.55;;;;;;;22.31;76.57;100008.28;31107002;28;20096;-68
2022/07/23 06:19:33;;;;;;;6.63;4.00;;;;;;;23.11;72.85;100008.50;31117787;28;20461;-69
2022/07/23 06:34:35;;;;;;;4.33;3.93;;;;;;;23.65;69.28;100024.69;31109563;28;20417;-69
2022/07/23 06:49:38;;;;;;;4.60;4.10;;;;;;;24.21;63.47;100021.63;31103151;28;20491;-74
2022/07/23 07:04:40;;;;;;;8.60;3.73;;;;;;;25.02;61.49;100045.00;31081342;28;20121;-76
2022/07/23 07:19:42;;;;;;;5.05;3.40;;;;;;;24.30;62.79;100060.94;31098924;28;20046;-72
2022/07/23 07:34:44;;;;;;;7.68;3.85;;;;;;;24.17;62.61;100057.97;31096419;28;20042;-74
2022/07/23 07:49:46;;;;;;;6.27;4.40;;;;;;;25.19;57.28;100070.59;31101148;28;20060;-73
2022/07/23 08:04:48;;;;;;;5.13;4.07;;;;;;;25.44;55.92;100071.34;31093189;28;20053;-75
2022/07/23 08:19:50;;;;;;;4.50;3.85;;;;;;;25.39;54.54;100095.13;31088414;28;20057;-73
2022/07/23 08:34:52;;;;;;;5.20;4.53;;;;;;;24.80;56.87;100079.97;31089343;28;20065;-73
2022/07/23 08:49:56;;;;;;;5.30;4.03;;;;;;;25.10;55.64;100080.00;31098144;28;20303;-71
2022/07/23 09:04:58;;;;;;;6.80;3.88;;;;;;;26.58;51.70;100082.00;31087577;28;20425;-72
2022/07/23 09:20:14;;;;;;;12.18;9.20;;;;;;;27.20;47.88;100067.81;31101198;28;20531;-72
2022/07/23 09:35:16;;;;;;;3.95;3.20;;;;;;;27.39;47.28;100071.28;31106557;28;20046;-73
2022/07/23 09:50:19;;;;;;;5.10;3.30;;;;;;;27.24;46.74;100068.25;31124906;28;20046;-71
2022/07/23 10:05:29;;;;;;;5.88;2.70;;;;;;;28.07;45.24;100057.47;31104540;28;20100;-72
2022/07/23 10:20:31;;;;;;;2.65;2.25;;;;;;;29.66;40.62;100050.97;31109187;28;20148;-72
2022/07/23 10:35:48;;;;;;;2.33;2.08;;;;;;;30.65;36.71;100052.00;31103532;28;20049;-72
2022/07/23 10:51:10;;;;;;;3.35;2.75;;;;;;;29.57;38.46;100026.31;31107581;28;20394;-72
2022/07/23 11:06:12;;;;;;;4.40;2.33;;;;;;;31.17;37.98;100021.72;31113411;28;20049;-72
2022/07/23 11:21:30;;;;;;;2.55;2.03;;;;;;;31.65;34.79;100008.47;31106044;28;20686;-72
2022/07/23 11:36:48;;;;;;;3.60;2.60;;;;;;;29.58;37.87;100008.22;31101088;28;20076;-72
2022/07/23 11:52:08;;;;;;;3.10;2.20;;;;;;;28.60;39.85;99989.50;31097260;28;20049;-72
2022/07/23 12:07:37;;;;;;;3.20;2.13;;;;;;;27.36;41.86;99991.53;31108629;28;20050;-72
2022/07/23 12:22:44;;;;;;;2.58;1.70;;;;;;;27.20;42.43;100000.94;31109479;28;20513;-72
2022/07/23 12:37:48;;;;;;;2.22;1.73;;;;;;;27.16;43.21;100000.53;31107655;28;20069;-72
2022/07/23 12:52:50;;;;;;;2.30;2.10;;;;;;;26.90;43.88;100009.59;31118816;28;20062;-72
2022/07/23 13:07:52;;;;;;;2.95;2.10;;;;;;;26.71;44.79;100000.56;31129553;28;20132;-72
2022/07/23 13:22:55;;;;;;;4.90;2.63;;;;;;;26.54;45.50;99998.06;31128556;28;20072;-72
2022/07/23 13:37:57;;;;;;;3.40;2.20;;;;;;;26.49;45.34;99990.53;31122902;28;20057;-72
2022/07/23 13:53:10;;;;;;;2.42;1.77;;;;;;;26.73;44.13;100001.53;31128951;28;20050;-73
2022/07/23 14:08:13;;;;;;;3.80;1.70;;;;;;;26.55;43.15;99999.56;31122023;28;20054;-72
2022/07/23 14:23:15;;;;;;;4.47;1.95;;;;;;;26.40;44.25;99996.53;31119360;28;20111;-71
2022/07/23 14:38:17;;;;;;;2.83;2.08;;;;;;;26.03;45.64;100000.09;31117095;28;20053;-73
2022/07/23 14:53:19;;;;;;;3.55;2.15;;;;;;;25.11;52.27;100042.63;31116832;28;20045;-72
2022/07/23 15:08:24;;;;;;;3.58;2.67;;;;;;;24.41;56.82;100024.78;31115134;28;20103;-72
2022/07/23 15:23:28;;;;;;;3.17;2.53;;;;;;;24.37;55.36;100026.34;31113515;28;20112;-72
2022/07/23 15:38:31;;;;;;;6.40;3.67;;;;;;;24.24;55.80;100037.25;31114376;28;20447;-72
2022/07/23 15:53:35;;;;;;;11.75;7.72;;;;;;;24.14;58.14;100040.31;31111628;28;20454;-70
2022/07/23 16:08:39;;;;;;;5.50;2.95;;;;;;;24.02;60.04;100029.81;31111262;28;20072;-73
2022/07/23 16:23:41;;;;;;;4.33;2.67;;;;;;;23.96;60.97;100027.06;31115158;28;20045;-72
2022/07/23 16:38:43;;;;;;;6.73;4.30;;;;;;;23.91;61.04;100036.16;31128343;28;20042;-72
2022/07/23 16:53:45;;;;;;;11.30;3.83;;;;;;;23.82;61.00;100044.81;31132661;28;20057;-73
2022/07/23 17:08:47;;;;;;;4.10;3.20;;;;;;;23.67;61.22;100041.56;31128840;28;20050;-73
2022/07/23 17:23:49;;;;;;;4.03;3.00;;;;;;;23.42;61.98;100058.00;31128928;28;20057;-73
2022/07/23 17:38:51;;;;;;;4.90;3.53;;;;;;;23.20;62.24;100066.38;31126516;28;20478;-72
2022/07/23 17:53:53;;;;;;;7.40;3.30;;;;;;;22.98;63.00;100080.22;31124396;28;20495;-73
2022/07/23 18:08:55;;;;;;;7.60;5.27;;;;;;;22.68;64.91;100113.91;31116504;28;20057;-73
2022/07/23 18:23:58;;;;;;;6.13;4.00;;;;;;;22.46;65.57;100113.88;31113908;28;20145;-74
2022/07/23 18:39:00;;;;;;;16.10;7.20;;;;;;;22.41;65.84;100106.34;31111732;28;20050;-73
2022/07/23 18:54:07;;;;;;;7.30;3.92;;;;;;;22.41;66.05;100100.81;31093401;28;20057;-72
2022/07/23 19:09:09;;;;;;;4.57;3.10;;;;;;;22.34;66.75;100106.81;31085990;28;20053;-72
2022/07/23 19:24:12;;;;;;;;;;;;;;;22.31;68.72;100102.28;31091882;28;20465;-69
2022/07/23 19:39:14;;;;;;;11.32;3.10;;;;;;;22.33;66.77;100095.00;31091423;28;20357;-71
2022/07/23 19:54:16;;;;;;;4.23;3.30;;;;;;;22.27;66.74;100085.19;31083873;28;20068;-69
2022/07/23 20:09:18;;;;;;;9.63;6.20;;;;;;;22.17;67.31;100094.97;31085072;28;20418;-69
2022/07/23 20:24:20;;;;;;;8.20;3.70;;;;;;;21.95;68.24;100096.38;31083300;28;20061;-71
2022/07/23 20:39:22;;;;;;;27.97;9.30;;;;;;;21.81;69.93;100104.84;31088864;28;20057;-68
2022/07/23 20:54:24;;;;;;;10.25;6.63;;;;;;;21.69;70.38;100098.53;31085603;28;20057;-69
2022/07/23 21:09:26;;;;;;;7.50;3.80;;;;;;;21.72;70.61;100086.47;31089721;28;20061;-68
2022/07/23 21:24:28;;;;;;;5.00;4.10;;;;;;;21.60;71.45;100080.13;31127526;28;20054;-68
2022/07/23 21:39:30;;;;;;;5.47;4.10;;;;;;;21.47;72.94;100092.88;31109157;28;20111;-69
2022/07/23 21:54:33;;;;;;;11.25;4.20;;;;;;;21.13;74.78;100076.06;31116913;28;20056;-68
2022/07/23 22:09:37;;;;;;;5.50;4.00;;;;;;;20.93;77.19;100095.47;31111415;28;20057;-68
2022/07/23 22:24:39;;;;;;;5.40;3.83;;;;;;;20.75;78.35;100119.41;31101183;28;20785;-68
2022/07/23 22:39:41;;;;;;;4.38;3.65;;;;;;;20.52;79.78;100112.19;31104641;28;20303;-68
2022/07/23 22:54:43;;;;;;;5.22;3.90;;;;;;;20.31;81.19;100125.19;31105308;28;20453;-68
2022/07/23 23:09:45;;;;;;;4.38;3.63;;;;;;;20.15;82.83;100114.00;31103406;28;20418;-69
2022/07/23 23:24:47;;;;;;;5.03;4.05;;;;;;;19.96;84.95;100113.53;31100094;28;20520;-67
2022/07/23 23:39:49;;;;;;;5.32;4.15;;;;;;;19.67;86.74;100117.91;31095450;28;20041;-69
2022/07/23 23:54:51;;;;;;;4.95;3.95;;;;;;;19.50;88.87;100127.16;31091523;28;20061;-67
